Terminal Aerodrome Forecast
Issued by NWS Dodge City, KS

Home | Current Version | Previous Version | Text Only | Print | Product List | Glossary On
Versions: 1 2 3 4 5 6 7 8 9 10 11 12 13 14 15 16 17 18 19 20 21 22 23 24 25 26 27 28 29 30 31 32 33 34 35 36 37 38 39 40 41 42 43 44 45 46
000
FTUS43 KDDC 302327
TAFDDC
TAF
KDDC 302327Z 0100/0124 34028G37KT P6SM OVC015
     FM010300 33019G27KT P6SM OVC015 WS020/34050KT
     FM010400 32017G25KT P6SM BKN030 WS020/34050KT
     FM010600 31016G24KT P6SM BKN050 WS020/34045KT
     FM010700 28014KT P6SM SCT200=

USA.gov is the U.S. government's official web portal to all federal, state and local government web resources and services.